createdAt,value
2019-02-27T00:02:22.954Z,97405.56
2019-02-27T00:04:49.730Z,97405.69
2019-02-27T00:07:20.878Z,97404.64
2019-02-27T00:09:45.503Z,97396.66
2019-02-27T00:12:12.556Z,97401.38
2019-02-27T00:14:39.647Z,97401.61
2019-02-27T00:17:08.323Z,97399.44
2019-02-27T00:19:35.581Z,97397.05
2019-02-27T00:22:02.879Z,97391.02
2019-02-27T00:24:30.883Z,97384.80
2019-02-27T00:26:58.175Z,97375.25
2019-02-27T00:29:28.864Z,97371.46
2019-02-27T00:31:53.957Z,97374.65
2019-02-27T00:34:21.255Z,97369.56
2019-02-27T00:36:48.296Z,97376.21
2019-02-27T00:39:15.328Z,97371.37
2019-02-27T00:41:43.064Z,97370.66
2019-02-27T00:44:11.816Z,97370.66
2019-02-27T00:46:39.125Z,97369.00
2019-02-27T00:49:06.409Z,97370.65
2019-02-27T00:51:33.528Z,97376.12
2019-02-27T00:54:00.560Z,97367.91
2019-02-27T00:56:27.607Z,97373.48
2019-02-27T00:58:54.640Z,97368.52
2019-02-27T01:01:21.686Z,97367.92
2019-02-27T01:03:48.714Z,97371.00
2019-02-27T01:06:15.773Z,97375.02
2019-02-27T01:08:43.053Z,97370.21
2019-02-27T01:11:10.333Z,97365.09
2019-02-27T01:13:37.382Z,97368.42
2019-02-27T01:16:04.666Z,97367.39
2019-02-27T01:18:32.030Z,97361.75
2019-02-27T01:20:59.056Z,97357.27
2019-02-27T01:23:26.102Z,97355.31
2019-02-27T01:25:56.074Z,97353.40
2019-02-27T01:28:22.126Z,97348.64
2019-02-27T01:30:49.160Z,97348.45
2019-02-27T01:33:16.458Z,97349.53
2019-02-27T01:35:43.744Z,97341.02
2019-02-27T01:38:11.050Z,97335.36
2019-02-27T01:40:38.356Z,97326.86
2019-02-27T01:43:06.451Z,97320.31
2019-02-27T01:45:33.475Z,97316.63
2019-02-27T01:48:00.853Z,97316.27
2019-02-27T01:50:27.890Z,97317.45
2019-02-27T01:52:55.269Z,97313.30
2019-02-27T01:55:22.645Z,97309.92
2019-02-27T01:57:50.801Z,97300.58
2019-02-27T02:00:22.979Z,97294.66
2019-02-27T02:02:47.894Z,97293.42
2019-02-27T02:05:15.104Z,97285.69
2019-02-27T02:07:42.148Z,97290.87
2019-02-27T02:10:09.502Z,97285.02
2019-02-27T02:12:36.564Z,97281.18
2019-02-27T02:15:03.929Z,97278.61
2019-02-27T02:17:32.745Z,97278.64
2019-02-27T02:19:59.878Z,97271.80
2019-02-27T02:22:26.921Z,97273.03
2019-02-27T02:24:54.845Z,97275.98
2019-02-27T02:27:22.116Z,97274.80
2019-02-27T02:29:52.928Z,97270.19
2019-02-27T02:32:18.292Z,97269.61
2019-02-27T02:34:45.351Z,97270.79
2019-02-27T02:37:12.385Z,97270.91
2019-02-27T02:39:39.683Z,97272.32
2019-02-27T02:42:06.722Z,97266.30
2019-02-27T02:44:33.854Z,97270.09
2019-02-27T02:47:00.898Z,97275.73
2019-02-27T02:49:28.016Z,97282.63
2019-02-27T02:51:55.182Z,97277.99
2019-02-27T02:54:22.515Z,97279.17
2019-02-27T02:56:49.575Z,97275.63
2019-02-27T02:59:16.934Z,97268.32
2019-02-27T03:01:45.701Z,97265.21
2019-02-27T03:04:13.687Z,97254.59
2019-02-27T03:09:05.714Z,97255.13
2019-02-27T03:11:34.845Z,97257.37
2019-02-27T03:14:01.899Z,97246.78
2019-02-27T03:16:29.227Z,97249.93
2019-02-27T03:18:56.552Z,97249.81
2019-02-27T03:21:27.535Z,97247.73
2019-02-27T03:23:52.634Z,97242.89
2019-02-27T03:26:19.623Z,97238.41
2019-02-27T03:28:46.673Z,97237.94
2019-02-27T03:31:18.459Z,97234.63
2019-02-27T03:33:42.855Z,97235.60
2019-02-27T03:36:10.210Z,97235.38
2019-02-27T03:38:37.269Z,97232.72
2019-02-27T03:41:04.620Z,97232.38
2019-02-27T03:43:31.975Z,97231.91
2019-02-27T03:45:59.026Z,97225.89
2019-02-27T03:48:27.842Z,97220.34
2019-02-27T03:50:55.393Z,97220.81
2019-02-27T03:53:22.725Z,97229.59
2019-02-27T03:55:49.780Z,97223.56
2019-02-27T03:58:17.065Z,97220.01
2019-02-27T04:00:44.363Z,97221.44
2019-02-27T04:03:17.148Z,97217.77
2019-02-27T04:05:41.939Z,97221.55
2019-02-27T04:08:09.137Z,97219.42
2019-02-27T04:10:36.254Z,97219.17
2019-02-27T04:13:03.620Z,97219.59
2019-02-27T04:15:30.667Z,97218.40
2019-02-27T04:17:57.948Z,97219.09
2019-02-27T04:20:25.037Z,97216.30
2019-02-27T04:22:52.291Z,97213.34
2019-02-27T04:25:19.342Z,97210.02
2019-02-27T04:27:46.637Z,97206.59
2019-02-27T04:30:15.117Z,97208.38
2019-02-27T04:32:47.544Z,97215.35
2019-02-27T04:35:11.801Z,97213.85
2019-02-27T04:37:39.087Z,97211.57
2019-02-27T04:40:06.410Z,97210.50
2019-02-27T04:42:33.692Z,97212.74
2019-02-27T04:45:00.741Z,97210.34
2019-02-27T04:47:29.244Z,97208.56
2019-02-27T04:49:56.819Z,97211.25
2019-02-27T04:52:24.380Z,97203.83
2019-02-27T04:54:51.992Z,97205.25
2019-02-27T04:57:19.034Z,97209.84
2019-02-27T04:59:49.742Z,97208.75
2019-02-27T05:02:16.550Z,97202.84
2019-02-27T05:04:43.900Z,97200.97
2019-02-27T05:07:10.940Z,97194.97
2019-02-27T05:09:37.998Z,97195.21
2019-02-27T05:12:05.182Z,97198.54
2019-02-27T05:14:32.468Z,97200.91
2019-02-27T05:16:59.880Z,97198.67
2019-02-27T05:19:26.894Z,97200.67
2019-02-27T05:21:54.269Z,97205.52
2019-02-27T05:24:21.569Z,97198.33
2019-02-27T05:26:48.973Z,97205.64
2019-02-27T05:29:16.012Z,97204.91
2019-02-27T05:31:43.066Z,97208.19
2019-02-27T05:34:13.490Z,97203.78
2019-02-27T05:36:39.621Z,97204.61
2019-02-27T05:39:06.654Z,97203.22
2019-02-27T05:41:35.076Z,97208.31
2019-02-27T05:44:02.421Z,97210.31
2019-02-27T05:46:29.469Z,97208.78
2019-02-27T05:48:56.508Z,97212.32
2019-02-27T05:51:24.137Z,97205.14
2019-02-27T05:53:51.597Z,97203.27
2019-02-27T05:56:19.232Z,97201.86
2019-02-27T05:58:46.532Z,97212.13
2019-02-27T06:01:13.889Z,97212.83
2019-02-27T06:03:41.245Z,97203.74
2019-02-27T06:06:11.578Z,97211.06
2019-02-27T06:08:38.100Z,97209.27
2019-02-27T06:11:06.629Z,97209.50
2019-02-27T06:13:33.947Z,97213.98
2019-02-27T06:16:04.004Z,97212.77
2019-02-27T06:18:30.085Z,97213.00
2019-02-27T06:20:57.441Z,97213.71
2019-02-27T06:23:24.736Z,97215.12
2019-02-27T06:25:51.782Z,97213.47
2019-02-27T06:28:19.426Z,97209.44
2019-02-27T06:30:46.766Z,97204.72
2019-02-27T06:33:13.813Z,97212.98
2019-02-27T06:35:42.065Z,97211.70
2019-02-27T06:38:09.437Z,97210.20
2019-02-27T06:40:36.546Z,97210.02
2019-02-27T06:43:03.942Z,97212.94
2019-02-27T06:45:30.978Z,97207.95
2019-02-27T06:47:58.103Z,97202.67
2019-02-27T06:50:26.066Z,97207.46
2019-02-27T06:52:53.169Z,97202.44
2019-02-27T06:55:20.474Z,97201.66
2019-02-27T06:57:47.869Z,97199.69
2019-02-27T07:00:15.229Z,97196.06
2019-02-27T07:02:42.360Z,97200.27
2019-02-27T07:05:13.300Z,97196.45
2019-02-27T07:07:38.436Z,97198.92
2019-02-27T07:10:05.550Z,97194.30
2019-02-27T07:12:32.679Z,97193.25
2019-02-27T07:14:59.809Z,97196.26
2019-02-27T07:17:29.239Z,97194.36
2019-02-27T07:19:56.077Z,97188.39
2019-02-27T07:22:23.473Z,97194.28
2019-02-27T07:24:50.515Z,97195.90
2019-02-27T07:27:17.876Z,97194.53
2019-02-27T07:29:44.924Z,97187.52
2019-02-27T07:32:12.222Z,97190.97
2019-02-27T07:34:39.533Z,97189.10
2019-02-27T07:37:06.573Z,97188.41
2019-02-27T07:39:34.767Z,97195.80
2019-02-27T07:42:02.112Z,97193.80
2019-02-27T07:44:32.223Z,97189.64
2019-02-27T07:46:59.579Z,97187.41
2019-02-27T07:49:28.333Z,97185.27
2019-02-27T07:51:57.953Z,97191.20
2019-02-27T07:54:28.813Z,97189.49
2019-02-27T07:56:53.628Z,97189.06
2019-02-27T07:59:21.066Z,97185.17
2019-02-27T08:01:48.424Z,97182.67
2019-02-27T08:04:19.051Z,97181.33
2019-02-27T08:06:44.467Z,97184.01
2019-02-27T08:09:11.821Z,97177.39
2019-02-27T08:11:39.170Z,97179.67
2019-02-27T08:14:06.550Z,97184.62
2019-02-27T08:16:36.850Z,97181.41
2019-02-27T08:19:02.888Z,97176.52
2019-02-27T08:21:30.254Z,97173.73
2019-02-27T08:23:57.330Z,97178.05
2019-02-27T08:26:24.608Z,97179.08
2019-02-27T08:28:52.010Z,97173.81
2019-02-27T08:31:19.053Z,97177.80
2019-02-27T08:33:46.394Z,97183.36
2019-02-27T08:36:13.769Z,97177.06
2019-02-27T08:38:41.103Z,97173.72
2019-02-27T08:41:08.479Z,97176.43
2019-02-27T08:43:35.818Z,97174.73
2019-02-27T08:46:03.172Z,97169.31
2019-02-27T08:48:30.642Z,97163.86
2019-02-27T08:50:57.985Z,97169.80
2019-02-27T08:53:26.876Z,97161.92
2019-02-27T08:55:54.232Z,97156.09
2019-02-27T08:58:21.626Z,97152.84
2019-02-27T09:00:49.246Z,97157.69
2019-02-27T09:05:45.356Z,97158.43
2019-02-27T09:08:12.747Z,97154.42
2019-02-27T09:10:40.102Z,97151.56
2019-02-27T09:13:07.219Z,97150.39
2019-02-27T09:15:34.622Z,97147.48
2019-02-27T09:18:02.429Z,97146.75
2019-02-27T09:20:29.612Z,97145.14
2019-02-27T09:22:56.655Z,97139.83
2019-02-27T09:25:24.895Z,97135.39
2019-02-27T09:27:52.523Z,97130.66
2019-02-27T09:30:19.867Z,97125.01
2019-02-27T09:32:46.971Z,97122.06
2019-02-27T09:35:14.368Z,97126.53
2019-02-27T09:37:41.738Z,97127.20
2019-02-27T09:40:09.181Z,97114.70
2019-02-27T09:42:36.546Z,97119.46
2019-02-27T09:45:03.596Z,97118.34
2019-02-27T09:47:31.245Z,97117.09
2019-02-27T09:49:58.609Z,97115.70
2019-02-27T09:52:29.747Z,97114.53
2019-02-27T09:54:55.155Z,97109.72
2019-02-27T09:57:22.506Z,97108.14
2019-02-27T09:59:51.120Z,97108.50
2019-02-27T10:02:19.590Z,97108.14
2019-02-27T10:04:46.649Z,97112.79
2019-02-27T10:07:14.577Z,97111.72
2019-02-27T10:09:42.439Z,97113.26
2019-02-27T10:12:09.533Z,97111.67
2019-02-27T10:14:36.860Z,97109.90
2019-02-27T10:17:06.770Z,97104.84
2019-02-27T10:19:33.160Z,97104.37
2019-02-27T10:22:00.445Z,97104.48
2019-02-27T10:24:27.494Z,97096.53
2019-02-27T10:26:54.867Z,97094.22
2019-02-27T10:29:22.882Z,97086.24
2019-02-27T10:31:50.296Z,97079.52
2019-02-27T10:34:18.244Z,97082.52
2019-02-27T10:36:47.607Z,97085.27
2019-02-27T10:39:15.843Z,97071.91
2019-02-27T10:41:44.868Z,97067.20
2019-02-27T10:44:12.006Z,97070.94
2019-02-27T10:46:39.058Z,97065.38
2019-02-27T10:49:06.607Z,97068.34
2019-02-27T10:51:33.745Z,97059.95
2019-02-27T10:54:04.503Z,97057.02
2019-02-27T10:56:29.534Z,97056.19
2019-02-27T10:58:56.584Z,97059.69
2019-02-27T11:01:23.802Z,97054.28
2019-02-27T11:03:50.846Z,97053.72
2019-02-27T11:06:18.202Z,97059.47
2019-02-27T11:08:45.313Z,97048.72
2019-02-27T11:11:13.134Z,97042.93
2019-02-27T11:13:41.424Z,97040.77
2019-02-27T11:16:09.854Z,97027.14
2019-02-27T11:18:37.185Z,97030.55
2019-02-27T11:21:04.477Z,97020.37
2019-02-27T11:23:31.914Z,97024.06
2019-02-27T11:25:59.221Z,97017.42
2019-02-27T11:28:26.335Z,97000.09
2019-02-27T11:30:53.676Z,97000.09
2019-02-27T11:33:25.470Z,96988.16
2019-02-27T11:35:49.825Z,96998.48
2019-02-27T11:38:17.173Z,96990.91
2019-02-27T11:40:44.531Z,96985.80
2019-02-27T11:43:11.656Z,96987.53
2019-02-27T11:45:39.003Z,96974.33
2019-02-27T11:48:06.387Z,96975.11
2019-02-27T11:50:33.767Z,96977.95
2019-02-27T11:53:02.822Z,96966.34
2019-02-27T11:55:30.216Z,96957.09
2019-02-27T11:57:57.657Z,96960.39
2019-02-27T12:00:25.006Z,96962.34
2019-02-27T12:02:52.062Z,96955.62
2019-02-27T12:05:19.353Z,96944.56
2019-02-27T12:07:50.626Z,96937.72
2019-02-27T12:10:15.506Z,96939.09
2019-02-27T12:12:42.911Z,96937.00
2019-02-27T12:15:10.193Z,96932.44
2019-02-27T12:17:37.247Z,96932.53
2019-02-27T12:20:04.386Z,96933.02
2019-02-27T12:22:32.974Z,96929.07
2019-02-27T12:25:00.914Z,96921.52
2019-02-27T12:27:47.915Z,96926.78
2019-02-27T12:29:57.367Z,96921.15
2019-02-27T12:32:24.718Z,96917.66
2019-02-27T12:34:52.075Z,96910.94
2019-02-27T12:37:28.120Z,96907.61
2019-02-27T12:39:49.657Z,96905.86
2019-02-27T12:42:18.539Z,96892.98
2019-02-27T12:44:45.799Z,96905.20
2019-02-27T12:47:12.871Z,96898.31
2019-02-27T12:49:39.912Z,96898.64
2019-02-27T12:52:08.942Z,96896.81
2019-02-27T12:54:36.038Z,96899.83
2019-02-27T12:57:03.417Z,96891.72
2019-02-27T12:59:33.010Z,96891.87
2019-02-27T13:02:08.063Z,96886.59
2019-02-27T13:04:30.631Z,96882.04
2019-02-27T13:06:57.625Z,96882.21
2019-02-27T13:09:25.319Z,96877.10
2019-02-27T13:11:52.709Z,96871.97
2019-02-27T13:14:19.766Z,96873.80
2019-02-27T13:16:49.573Z,96868.60
2019-02-27T13:19:15.663Z,96865.13
2019-02-27T13:21:42.710Z,96855.40
2019-02-27T13:24:10.038Z,96856.72
2019-02-27T13:26:37.101Z,96854.43
2019-02-27T13:29:04.435Z,96844.44
2019-02-27T13:31:31.812Z,96835.56
2019-02-27T13:33:58.873Z,96842.11
2019-02-27T13:36:26.197Z,96831.52
2019-02-27T13:38:53.551Z,96830.21
2019-02-27T13:41:20.957Z,96826.44
2019-02-27T13:43:48.369Z,96822.71
2019-02-27T13:46:15.741Z,96815.32
2019-02-27T13:48:43.178Z,96816.01
2019-02-27T13:51:10.529Z,96805.09
2019-02-27T13:53:37.579Z,96803.83
2019-02-27T13:56:04.621Z,96802.66
2019-02-27T13:58:35.738Z,96797.42
2019-02-27T14:01:00.668Z,96800.66
2019-02-27T14:03:27.726Z,96794.47
2019-02-27T14:05:55.072Z,96795.03
2019-02-27T14:08:22.122Z,96789.67
2019-02-27T14:10:50.418Z,96787.74
2019-02-27T14:13:18.259Z,96787.77
2019-02-27T14:15:45.293Z,96783.58
2019-02-27T14:18:13.422Z,96790.50
2019-02-27T14:20:41.352Z,96789.88
2019-02-27T14:23:08.731Z,96788.22
2019-02-27T14:25:35.759Z,96782.20
2019-02-27T14:28:03.113Z,96780.38
2019-02-27T14:30:30.410Z,96784.75
2019-02-27T14:32:57.459Z,96781.55
2019-02-27T14:35:25.236Z,96779.02
2019-02-27T14:37:52.383Z,96776.68
2019-02-27T14:40:19.435Z,96777.30
2019-02-27T14:42:46.852Z,96774.52
2019-02-27T14:45:14.204Z,96776.03
2019-02-27T14:47:41.315Z,96775.70
2019-02-27T14:50:08.693Z,96778.70
2019-02-27T14:52:36.050Z,96772.09
2019-02-27T14:55:04.274Z,96774.04
2019-02-27T14:57:31.761Z,96773.30
2019-02-27T14:59:59.156Z,96769.69
2019-02-27T15:02:26.493Z,96766.73
2019-02-27T15:04:53.854Z,96761.22
2019-02-27T15:07:22.201Z,96761.76
2019-02-27T15:09:49.721Z,96759.50
2019-02-27T15:12:19.519Z,96761.72
2019-02-27T15:14:46.133Z,96750.98
2019-02-27T15:17:13.488Z,96748.42
2019-02-27T15:19:40.787Z,96744.54
2019-02-27T15:22:08.116Z,96741.16
2019-02-27T15:24:35.832Z,96740.91
2019-02-27T15:27:04.259Z,96729.88
2019-02-27T15:29:32.732Z,96731.20
2019-02-27T15:32:00.178Z,96730.33
2019-02-27T15:34:27.534Z,96722.29
2019-02-27T15:36:54.909Z,96714.69
2019-02-27T15:39:21.962Z,96714.18
2019-02-27T15:41:49.340Z,96711.52
2019-02-27T15:44:16.652Z,96703.17
2019-02-27T15:46:43.692Z,96705.69
2019-02-27T15:49:12.807Z,96698.73
2019-02-27T15:51:40.260Z,96700.62
2019-02-27T15:54:07.605Z,96692.58
2019-02-27T15:56:34.910Z,96689.45
2019-02-27T15:59:05.177Z,96684.81
2019-02-27T16:01:33.027Z,96686.95
2019-02-27T16:03:59.778Z,96679.61
2019-02-27T16:06:27.164Z,96685.20
2019-02-27T16:08:57.365Z,96688.08
2019-02-27T16:11:23.307Z,96684.13
2019-02-27T16:13:50.591Z,96678.47
2019-02-27T16:16:22.431Z,96680.91
2019-02-27T16:18:49.395Z,96671.38
2019-02-27T16:24:09.513Z,96671.55
2019-02-27T16:26:39.393Z,96670.06
2019-02-27T16:29:16.598Z,96663.98
2019-02-27T16:31:43.892Z,96663.09
2019-02-27T16:34:15.160Z,96661.58
2019-02-27T16:36:51.581Z,96659.88
2019-02-27T16:39:18.842Z,96659.34
2019-02-27T16:41:51.905Z,96658.27
2019-02-27T16:47:19.653Z,96654.81
2019-02-27T16:49:47.268Z,96657.19
2019-02-27T16:52:15.341Z,96656.79
2019-02-27T16:54:42.600Z,96660.05
2019-02-27T16:57:09.825Z,96654.89
2019-02-27T16:59:37.095Z,96655.52
2019-02-27T17:02:05.255Z,96662.81
2019-02-27T17:04:34.253Z,96654.28
2019-02-27T17:07:05.988Z,96650.88
2019-02-27T17:09:33.289Z,96637.11
2019-02-27T17:12:04.252Z,96646.91
2019-02-27T17:14:31.828Z,96635.56
2019-02-27T17:17:00.128Z,96637.74
2019-02-27T17:19:27.386Z,96641.23
2019-02-27T17:21:58.597Z,96643.14
2019-02-27T17:24:25.720Z,96633.77
2019-02-27T17:26:53.120Z,96642.42
2019-02-27T17:29:22.938Z,96637.84
2019-02-27T17:31:55.284Z,96642.23
2019-02-27T17:34:20.545Z,96639.77
2019-02-27T17:36:48.181Z,96639.27
2019-02-27T17:39:16.230Z,96638.41
2019-02-27T17:41:44.674Z,96637.75
2019-02-27T17:44:12.697Z,96635.10
2019-02-27T17:46:41.468Z,96635.77
2019-02-27T17:49:08.502Z,96636.80
2019-02-27T17:51:39.564Z,96637.39
2019-02-27T17:54:07.039Z,96630.08
2019-02-27T17:56:35.599Z,96630.90
2019-02-27T17:59:08.102Z,96633.63
2019-02-27T18:01:31.798Z,96627.59
2019-02-27T18:04:02.101Z,96627.64
2019-02-27T18:06:31.158Z,96627.38
2019-02-27T18:08:58.437Z,96636.49
2019-02-27T18:11:25.975Z,96640.91
2019-02-27T18:13:59.351Z,96642.56
2019-02-27T18:16:27.276Z,96638.79
2019-02-27T18:18:54.929Z,96640.61
2019-02-27T18:21:24.145Z,96636.98
2019-02-27T18:23:51.189Z,96641.91
2019-02-27T18:26:18.620Z,96631.27
2019-02-27T18:28:45.961Z,96630.45
2019-02-27T18:31:13.156Z,96635.53
2019-02-27T18:33:41.693Z,96635.67
2019-02-27T18:36:09.162Z,96630.27
2019-02-27T18:38:40.789Z,96631.74
2019-02-27T18:41:09.029Z,96631.59
2019-02-27T18:43:36.264Z,96628.81
2019-02-27T18:46:04.820Z,96627.48
2019-02-27T18:48:32.100Z,96625.19
2019-02-27T18:51:00.568Z,96616.51
2019-02-27T18:53:28.367Z,96616.03
2019-02-27T18:55:57.544Z,96618.98
2019-02-27T18:58:26.121Z,96615.04
2019-02-27T19:00:54.189Z,96613.08
2019-02-27T19:03:25.371Z,96612.73
2019-02-27T19:05:50.354Z,96607.34
2019-02-27T19:08:17.722Z,96606.63
2019-02-27T19:10:46.901Z,96608.08
2019-02-27T19:13:14.417Z,96602.98
2019-02-27T19:15:45.505Z,96594.28
2019-02-27T19:18:12.055Z,96591.67
2019-02-27T19:20:42.710Z,96584.81
2019-02-27T19:23:09.924Z,96575.56
2019-02-27T19:25:38.370Z,96569.83
2019-02-27T19:28:07.619Z,96570.63
2019-02-27T19:30:35.526Z,96569.31
2019-02-27T19:33:04.000Z,96565.70
2019-02-27T19:35:31.727Z,96567.60
2019-02-27T19:37:59.914Z,96564.86
2019-02-27T19:40:30.540Z,96564.86
2019-02-27T19:42:58.215Z,96558.55
2019-02-27T19:45:25.606Z,96558.74
2019-02-27T19:47:55.530Z,96560.39
2019-02-27T19:50:22.905Z,96551.91
2019-02-27T19:52:51.479Z,96558.80
2019-02-27T19:55:19.665Z,96554.92
2019-02-27T19:57:46.719Z,96559.23
2019-02-27T20:00:14.895Z,96556.05
2019-02-27T20:02:44.487Z,96553.58
2019-02-27T20:05:12.956Z,96542.09
2019-02-27T20:07:40.534Z,96551.34
2019-02-27T20:10:08.813Z,96548.77
2019-02-27T20:12:37.388Z,96545.97
2019-02-27T20:15:04.433Z,96542.78
2019-02-27T20:17:33.110Z,96536.59
2019-02-27T20:20:00.532Z,96535.56
2019-02-27T20:22:30.584Z,96540.84
2019-02-27T20:24:57.952Z,96531.83
2019-02-27T20:27:29.369Z,96532.30
2019-02-27T20:29:57.603Z,96531.97
2019-02-27T20:32:28.358Z,96527.23
2019-02-27T20:34:54.932Z,96517.19
2019-02-27T20:37:22.111Z,96517.37
2019-02-27T20:39:49.390Z,96510.63
2019-02-27T20:42:16.694Z,96515.11
2019-02-27T20:44:43.745Z,96517.41
2019-02-27T20:47:10.793Z,96512.35
2019-02-27T20:49:38.233Z,96509.91
2019-02-27T20:52:05.993Z,96505.36
2019-02-27T20:54:33.207Z,96506.91
2019-02-27T20:57:01.147Z,96507.27
2019-02-27T20:59:31.654Z,96505.16
2019-02-27T21:01:59.440Z,96501.06
2019-02-27T21:04:26.979Z,96503.17
2019-02-27T21:06:54.749Z,96502.52
2019-02-27T21:09:21.943Z,96495.58
2019-02-27T21:11:49.871Z,96490.80
2019-02-27T21:14:20.527Z,96489.98
2019-02-27T21:16:47.272Z,96489.80
2019-02-27T21:19:14.437Z,96488.00
2019-02-27T21:21:42.873Z,96486.02
2019-02-27T21:24:10.071Z,96483.08
2019-02-27T21:26:37.375Z,96475.08
2019-02-27T21:29:08.781Z,96472.70
2019-02-27T21:31:37.002Z,96478.55
2019-02-27T21:34:04.213Z,96473.80
2019-02-27T21:36:36.313Z,96472.31
2019-02-27T21:39:00.560Z,96462.05
2019-02-27T21:41:29.659Z,96460.42
2019-02-27T21:43:57.939Z,96460.11
2019-02-27T21:46:26.205Z,96458.34
2019-02-27T21:48:54.484Z,96454.56
2019-02-27T21:51:22.737Z,96452.35
2019-02-27T21:53:50.014Z,96454.73
2019-02-27T21:56:18.200Z,96453.75
2019-02-27T21:58:45.841Z,96458.98
2019-02-27T22:01:12.982Z,96447.75
2019-02-27T22:03:40.295Z,96449.06
2019-02-27T22:06:07.651Z,96450.22
2019-02-27T22:08:36.157Z,96451.19
2019-02-27T22:11:04.105Z,96445.75
2019-02-27T22:13:32.339Z,96450.70
2019-02-27T22:15:59.405Z,96452.34
2019-02-27T22:18:26.715Z,96448.04
2019-02-27T22:20:53.781Z,96455.06
2019-02-27T22:23:21.086Z,96446.22
2019-02-27T22:25:48.396Z,96447.02
2019-02-27T22:28:17.317Z,96445.22
2019-02-27T22:30:45.013Z,96442.86
2019-02-27T22:33:12.447Z,96439.91
2019-02-27T22:35:39.809Z,96438.13
2019-02-27T22:38:07.175Z,96435.02
2019-02-27T22:40:37.920Z,96426.51
2019-02-27T22:43:03.253Z,96418.66
2019-02-27T22:45:30.677Z,96415.58
2019-02-27T22:47:57.963Z,96408.66
2019-02-27T22:50:25.370Z,96412.09
2019-02-27T22:52:54.788Z,96410.47
2019-02-27T22:55:21.720Z,96401.80
2019-02-27T22:57:49.006Z,96403.74
2019-02-27T23:00:16.307Z,96398.53
2019-02-27T23:02:44.963Z,96397.72
2019-02-27T23:05:12.282Z,96392.31
2019-02-27T23:07:39.314Z,96392.60
2019-02-27T23:10:06.617Z,96393.43
2019-02-27T23:12:34.018Z,96384.24
2019-02-27T23:15:01.376Z,96390.70
2019-02-27T23:17:31.599Z,96396.64
2019-02-27T23:19:57.238Z,96391.38
2019-02-27T23:22:24.274Z,96390.13
2019-02-27T23:24:51.337Z,96386.39
2019-02-27T23:27:18.619Z,96386.73
2019-02-27T23:29:46.041Z,96384.02
2019-02-27T23:32:13.373Z,96382.84
2019-02-27T23:34:42.448Z,96386.63
2019-02-27T23:37:09.470Z,96377.18
2019-02-27T23:39:39.691Z,96373.92
2019-02-27T23:42:05.506Z,96381.30
2019-02-27T23:44:32.812Z,96377.60
2019-02-27T23:47:00.140Z,96381.38
2019-02-27T23:49:27.177Z,96378.64
2019-02-27T23:51:54.586Z,96376.09
2019-02-27T23:54:21.628Z,96373.22
2019-02-27T23:56:51.831Z,96373.66
2019-02-27T23:59:17.705Z,96372.16
